sensor_id;sensor_type;location;lat;lon;timestamp;P1;durP1;ratioP1;P2;durP2;ratioP2
12689;SDS011;6409;56.294;14.480;2023-03-01T00:00:53;0.70;;;0.70;;
12689;SDS011;6409;56.294;14.480;2023-03-01T00:03:20;0.80;;;0.80;;
12689;SDS011;6409;56.294;14.480;2023-03-01T00:05:47;0.70;;;0.70;;
12689;SDS011;6409;56.294;14.480;2023-03-01T00:08:14;0.63;;;0.63;;
12689;SDS011;6409;56.294;14.480;2023-03-01T00:10:42;0.60;;;0.60;;
12689;SDS011;6409;56.294;14.480;2023-03-01T00:13:09;0.70;;;0.70;;
12689;SDS011;6409;56.294;14.480;2023-03-01T00:15:37;0.90;;;0.90;;
12689;SDS011;6409;56.294;14.480;2023-03-01T00:18:06;0.70;;;0.70;;
12689;SDS011;6409;56.294;14.480;2023-03-01T00:20:33;0.70;;;0.70;;
12689;SDS011;6409;56.294;14.480;2023-03-01T00:23:00;0.90;;;0.87;;
12689;SDS011;6409;56.294;14.480;2023-03-01T00:25:27;0.70;;;0.70;;
12689;SDS011;6409;56.294;14.480;2023-03-01T00:27:55;0.70;;;0.70;;
12689;SDS011;6409;56.294;14.480;2023-03-01T00:30:22;1.13;;;1.03;;
12689;SDS011;6409;56.294;14.480;2023-03-01T00:32:49;1.07;;;0.90;;
12689;SDS011;6409;56.294;14.480;2023-03-01T00:35:16;0.90;;;0.90;;
12689;SDS011;6409;56.294;14.480;2023-03-01T00:37:43;0.90;;;0.90;;
12689;SDS011;6409;56.294;14.480;2023-03-01T00:40:11;0.70;;;0.70;;
12689;SDS011;6409;56.294;14.480;2023-03-01T00:42:41;0.70;;;0.70;;
12689;SDS011;6409;56.294;14.480;2023-03-01T00:45:10;0.97;;;0.80;;
12689;SDS011;6409;56.294;14.480;2023-03-01T00:47:38;0.60;;;0.60;;
12689;SDS011;6409;56.294;14.480;2023-03-01T00:50:05;0.80;;;0.80;;
12689;SDS011;6409;56.294;14.480;2023-03-01T00:52:33;0.80;;;0.80;;
12689;SDS011;6409;56.294;14.480;2023-03-01T00:55:00;1.00;;;1.00;;
12689;SDS011;6409;56.294;14.480;2023-03-01T00:57:27;0.60;;;0.60;;
12689;SDS011;6409;56.294;14.480;2023-03-01T00:59:54;0.80;;;0.80;;
12689;SDS011;6409;56.294;14.480;2023-03-01T01:02:22;0.63;;;0.63;;
12689;SDS011;6409;56.294;14.480;2023-03-01T01:04:49;0.60;;;0.60;;
12689;SDS011;6409;56.294;14.480;2023-03-01T01:07:17;0.60;;;0.60;;
12689;SDS011;6409;56.294;14.480;2023-03-01T01:09:45;0.83;;;0.83;;
12689;SDS011;6409;56.294;14.480;2023-03-01T01:12:12;0.80;;;0.80;;
12689;SDS011;6409;56.294;14.480;2023-03-01T01:14:39;0.70;;;0.70;;
12689;SDS011;6409;56.294;14.480;2023-03-01T01:17:06;0.63;;;0.63;;
12689;SDS011;6409;56.294;14.480;2023-03-01T01:19:34;0.60;;;0.60;;
12689;SDS011;6409;56.294;14.480;2023-03-01T01:22:01;0.70;;;0.70;;
12689;SDS011;6409;56.294;14.480;2023-03-01T01:24:28;0.73;;;0.73;;
12689;SDS011;6409;56.294;14.480;2023-03-01T01:26:55;0.73;;;0.73;;
12689;SDS011;6409;56.294;14.480;2023-03-01T01:29:22;0.67;;;0.67;;
12689;SDS011;6409;56.294;14.480;2023-03-01T01:31:49;0.90;;;0.90;;
12689;SDS011;6409;56.294;14.480;2023-03-01T01:34:17;0.70;;;0.70;;
12689;SDS011;6409;56.294;14.480;2023-03-01T01:36:48;0.67;;;0.67;;
12689;SDS011;6409;56.294;14.480;2023-03-01T01:39:18;0.70;;;0.70;;
12689;SDS011;6409;56.294;14.480;2023-03-01T01:41:46;0.93;;;0.93;;
12689;SDS011;6409;56.294;14.480;2023-03-01T01:44:14;0.73;;;0.73;;
12689;SDS011;6409;56.294;14.480;2023-03-01T01:46:44;0.60;;;0.60;;
12689;SDS011;6409;56.294;14.480;2023-03-01T01:49:17;0.70;;;0.70;;
12689;SDS011;6409;56.294;14.480;2023-03-01T01:51:51;0.70;;;0.70;;
12689;SDS011;6409;56.294;14.480;2023-03-01T01:54:23;1.80;;;0.70;;
12689;SDS011;6409;56.294;14.480;2023-03-01T01:56:52;0.80;;;0.80;;
12689;SDS011;6409;56.294;14.480;2023-03-01T01:59:22;0.80;;;0.80;;
12689;SDS011;6409;56.294;14.480;2023-03-01T02:01:50;0.83;;;0.83;;
12689;SDS011;6409;56.294;14.480;2023-03-01T02:04:17;0.80;;;0.80;;
12689;SDS011;6409;56.294;14.480;2023-03-01T02:06:44;1.00;;;1.00;;
12689;SDS011;6409;56.294;14.480;2023-03-01T02:09:18;0.57;;;0.57;;
12689;SDS011;6409;56.294;14.480;2023-03-01T02:11:47;0.87;;;0.70;;
12689;SDS011;6409;56.294;14.480;2023-03-01T02:14:14;0.60;;;0.60;;
12689;SDS011;6409;56.294;14.480;2023-03-01T02:16:42;0.60;;;0.60;;
12689;SDS011;6409;56.294;14.480;2023-03-01T02:19:09;0.67;;;0.67;;
12689;SDS011;6409;56.294;14.480;2023-03-01T02:21:46;0.70;;;0.70;;
12689;SDS011;6409;56.294;14.480;2023-03-01T02:24:23;0.70;;;0.70;;
12689;SDS011;6409;56.294;14.480;2023-03-01T02:26:56;0.73;;;0.73;;
12689;SDS011;6409;56.294;14.480;2023-03-01T02:29:26;0.73;;;0.63;;
12689;SDS011;6409;56.294;14.480;2023-03-01T02:31:54;0.60;;;0.60;;
12689;SDS011;6409;56.294;14.480;2023-03-01T02:34:23;0.67;;;0.60;;
12689;SDS011;6409;56.294;14.480;2023-03-01T02:36:52;0.70;;;0.70;;
12689;SDS011;6409;56.294;14.480;2023-03-01T02:39:22;0.60;;;0.60;;
12689;SDS011;6409;56.294;14.480;2023-03-01T02:41:52;0.60;;;0.60;;
12689;SDS011;6409;56.294;14.480;2023-03-01T02:44:20;1.37;;;0.77;;
12689;SDS011;6409;56.294;14.480;2023-03-01T02:46:49;0.60;;;0.60;;
12689;SDS011;6409;56.294;14.480;2023-03-01T02:49:18;0.47;;;0.47;;
12689;SDS011;6409;56.294;14.480;2023-03-01T02:51:49;3.80;;;0.80;;
12689;SDS011;6409;56.294;14.480;2023-03-01T02:54:24;0.60;;;0.60;;
12689;SDS011;6409;56.294;14.480;2023-03-01T02:56:54;0.63;;;0.63;;
12689;SDS011;6409;56.294;14.480;2023-03-01T02:59:22;0.63;;;0.63;;
12689;SDS011;6409;56.294;14.480;2023-03-01T03:01:54;0.57;;;0.57;;
12689;SDS011;6409;56.294;14.480;2023-03-01T03:04:21;0.70;;;0.70;;
12689;SDS011;6409;56.294;14.480;2023-03-01T03:06:48;0.60;;;0.60;;
12689;SDS011;6409;56.294;14.480;2023-03-01T03:09:16;0.80;;;0.80;;
12689;SDS011;6409;56.294;14.480;2023-03-01T03:11:44;0.60;;;0.60;;
12689;SDS011;6409;56.294;14.480;2023-03-01T03:14:12;0.57;;;0.57;;
12689;SDS011;6409;56.294;14.480;2023-03-01T03:16:41;0.73;;;0.73;;
12689;SDS011;6409;56.294;14.480;2023-03-01T03:19:10;0.60;;;0.60;;
12689;SDS011;6409;56.294;14.480;2023-03-01T03:21:37;0.90;;;0.90;;
12689;SDS011;6409;56.294;14.480;2023-03-01T03:24:04;0.70;;;0.70;;
12689;SDS011;6409;56.294;14.480;2023-03-01T03:26:32;0.50;;;0.50;;
12689;SDS011;6409;56.294;14.480;2023-03-01T03:28:59;0.73;;;0.73;;
12689;SDS011;6409;56.294;14.480;2023-03-01T03:31:26;0.80;;;0.80;;
12689;SDS011;6409;56.294;14.480;2023-03-01T03:33:53;0.80;;;0.80;;
12689;SDS011;6409;56.294;14.480;2023-03-01T03:36:23;0.57;;;0.50;;
12689;SDS011;6409;56.294;14.480;2023-03-01T03:38:50;0.57;;;0.57;;
12689;SDS011;6409;56.294;14.480;2023-03-01T03:41:17;0.60;;;0.60;;
12689;SDS011;6409;56.294;14.480;2023-03-01T03:43:44;0.60;;;0.60;;
12689;SDS011;6409;56.294;14.480;2023-03-01T03:46:11;0.60;;;0.60;;
12689;SDS011;6409;56.294;14.480;2023-03-01T03:48:39;0.63;;;0.63;;
12689;SDS011;6409;56.294;14.480;2023-03-01T03:51:09;1.50;;;0.70;;
12689;SDS011;6409;56.294;14.480;2023-03-01T03:53:38;0.50;;;0.50;;
12689;SDS011;6409;56.294;14.480;2023-03-01T03:56:06;0.70;;;0.70;;
12689;SDS011;6409;56.294;14.480;2023-03-01T03:58:34;0.50;;;0.50;;
12689;SDS011;6409;56.294;14.480;2023-03-01T04:01:01;1.10;;;0.77;;
12689;SDS011;6409;56.294;14.480;2023-03-01T04:03:28;0.50;;;0.50;;
12689;SDS011;6409;56.294;14.480;2023-03-01T04:05:57;0.70;;;0.70;;
12689;SDS011;6409;56.294;14.480;2023-03-01T04:08:24;1.43;;;0.90;;
12689;SDS011;6409;56.294;14.480;2023-03-01T04:10:56;0.60;;;0.60;;
12689;SDS011;6409;56.294;14.480;2023-03-01T04:13:24;0.70;;;0.63;;
12689;SDS011;6409;56.294;14.480;2023-03-01T04:15:51;0.70;;;0.70;;
12689;SDS011;6409;56.294;14.480;2023-03-01T04:18:19;0.50;;;0.50;;
12689;SDS011;6409;56.294;14.480;2023-03-01T04:20:47;0.60;;;0.60;;
12689;SDS011;6409;56.294;14.480;2023-03-01T04:23:17;0.70;;;0.70;;
12689;SDS011;6409;56.294;14.480;2023-03-01T04:25:47;0.70;;;0.70;;
12689;SDS011;6409;56.294;14.480;2023-03-01T04:28:20;0.50;;;0.50;;
12689;SDS011;6409;56.294;14.480;2023-03-01T04:30:49;0.70;;;0.53;;
12689;SDS011;6409;56.294;14.480;2023-03-01T04:33:16;0.70;;;0.70;;
12689;SDS011;6409;56.294;14.480;2023-03-01T04:35:43;0.77;;;0.77;;
12689;SDS011;6409;56.294;14.480;2023-03-01T04:38:10;0.60;;;0.60;;
12689;SDS011;6409;56.294;14.480;2023-03-01T04:40:37;0.53;;;0.53;;
12689;SDS011;6409;56.294;14.480;2023-03-01T04:43:04;0.60;;;0.60;;
12689;SDS011;6409;56.294;14.480;2023-03-01T04:45:33;0.83;;;0.80;;
12689;SDS011;6409;56.294;14.480;2023-03-01T04:48:00;0.60;;;0.60;;
12689;SDS011;6409;56.294;14.480;2023-03-01T04:50:27;0.40;;;0.40;;
12689;SDS011;6409;56.294;14.480;2023-03-01T04:52:54;1.00;;;0.87;;
12689;SDS011;6409;56.294;14.480;2023-03-01T04:55:23;0.70;;;0.70;;
12689;SDS011;6409;56.294;14.480;2023-03-01T04:57:51;0.53;;;0.53;;
12689;SDS011;6409;56.294;14.480;2023-03-01T05:00:19;1.03;;;0.93;;
12689;SDS011;6409;56.294;14.480;2023-03-01T05:02:55;0.60;;;0.60;;
12689;SDS011;6409;56.294;14.480;2023-03-01T05:05:24;0.70;;;0.70;;
12689;SDS011;6409;56.294;14.480;2023-03-01T05:07:53;0.77;;;0.77;;
12689;SDS011;6409;56.294;14.480;2023-03-01T05:10:20;0.53;;;0.53;;
12689;SDS011;6409;56.294;14.480;2023-03-01T05:12:48;0.80;;;0.80;;
12689;SDS011;6409;56.294;14.480;2023-03-01T05:15:15;0.70;;;0.70;;
12689;SDS011;6409;56.294;14.480;2023-03-01T05:17:42;0.70;;;0.70;;
12689;SDS011;6409;56.294;14.480;2023-03-01T05:20:11;0.47;;;0.47;;
12689;SDS011;6409;56.294;14.480;2023-03-01T05:22:38;1.27;;;0.90;;
12689;SDS011;6409;56.294;14.480;2023-03-01T05:25:05;0.60;;;0.60;;
12689;SDS011;6409;56.294;14.480;2023-03-01T05:27:33;0.90;;;0.90;;
12689;SDS011;6409;56.294;14.480;2023-03-01T05:30:00;0.60;;;0.60;;
12689;SDS011;6409;56.294;14.480;2023-03-01T05:32:38;0.57;;;0.57;;
12689;SDS011;6409;56.294;14.480;2023-03-01T05:35:06;1.80;;;0.80;;
12689;SDS011;6409;56.294;14.480;2023-03-01T05:37:35;0.70;;;0.70;;
12689;SDS011;6409;56.294;14.480;2023-03-01T05:40:02;0.57;;;0.53;;
12689;SDS011;6409;56.294;14.480;2023-03-01T05:42:30;0.77;;;0.77;;
12689;SDS011;6409;56.294;14.480;2023-03-01T05:44:57;0.60;;;0.60;;
12689;SDS011;6409;56.294;14.480;2023-03-01T05:47:24;0.40;;;0.40;;
12689;SDS011;6409;56.294;14.480;2023-03-01T05:49:51;0.60;;;0.60;;
12689;SDS011;6409;56.294;14.480;2023-03-01T05:52:18;0.60;;;0.60;;
12689;SDS011;6409;56.294;14.480;2023-03-01T05:54:46;0.70;;;0.70;;
12689;SDS011;6409;56.294;14.480;2023-03-01T05:57:13;0.73;;;0.60;;
12689;SDS011;6409;56.294;14.480;2023-03-01T05:59:40;0.60;;;0.60;;
12689;SDS011;6409;56.294;14.480;2023-03-01T06:02:07;0.50;;;0.50;;
12689;SDS011;6409;56.294;14.480;2023-03-01T06:04:34;0.90;;;0.70;;
12689;SDS011;6409;56.294;14.480;2023-03-01T06:07:01;0.70;;;0.70;;
12689;SDS011;6409;56.294;14.480;2023-03-01T06:09:28;0.80;;;0.80;;
12689;SDS011;6409;56.294;14.480;2023-03-01T06:11:56;0.50;;;0.50;;
12689;SDS011;6409;56.294;14.480;2023-03-01T06:14:23;0.60;;;0.60;;
12689;SDS011;6409;56.294;14.480;2023-03-01T06:16:50;0.50;;;0.50;;
12689;SDS011;6409;56.294;14.480;2023-03-01T06:19:17;0.80;;;0.80;;
12689;SDS011;6409;56.294;14.480;2023-03-01T06:21:44;0.70;;;0.70;;
12689;SDS011;6409;56.294;14.480;2023-03-01T06:24:11;1.37;;;1.00;;
12689;SDS011;6409;56.294;14.480;2023-03-01T06:26:38;0.80;;;0.80;;
12689;SDS011;6409;56.294;14.480;2023-03-01T06:29:06;0.50;;;0.50;;
12689;SDS011;6409;56.294;14.480;2023-03-01T06:31:33;0.80;;;0.80;;
12689;SDS011;6409;56.294;14.480;2023-03-01T06:34:00;0.83;;;0.83;;
12689;SDS011;6409;56.294;14.480;2023-03-01T06:36:27;1.20;;;1.10;;
12689;SDS011;6409;56.294;14.480;2023-03-01T06:38:54;0.63;;;0.63;;
12689;SDS011;6409;56.294;14.480;2023-03-01T06:41:21;0.70;;;0.70;;
12689;SDS011;6409;56.294;14.480;2023-03-01T06:43:48;0.90;;;0.90;;
12689;SDS011;6409;56.294;14.480;2023-03-01T06:46:17;0.57;;;0.57;;
12689;SDS011;6409;56.294;14.480;2023-03-01T06:48:44;0.63;;;0.63;;
12689;SDS011;6409;56.294;14.480;2023-03-01T06:51:11;1.93;;;0.67;;
12689;SDS011;6409;56.294;14.480;2023-03-01T06:53:38;1.87;;;1.00;;
12689;SDS011;6409;56.294;14.480;2023-03-01T06:56:05;0.80;;;0.80;;
12689;SDS011;6409;56.294;14.480;2023-03-01T06:58:32;0.90;;;0.90;;
12689;SDS011;6409;56.294;14.480;2023-03-01T07:00:59;0.80;;;0.80;;
12689;SDS011;6409;56.294;14.480;2023-03-01T07:03:27;0.90;;;0.90;;
12689;SDS011;6409;56.294;14.480;2023-03-01T07:05:54;1.30;;;0.83;;
12689;SDS011;6409;56.294;14.480;2023-03-01T07:08:22;0.90;;;0.90;;
12689;SDS011;6409;56.294;14.480;2023-03-01T07:10:54;0.70;;;0.70;;
12689;SDS011;6409;56.294;14.480;2023-03-01T07:13:21;0.97;;;0.93;;
12689;SDS011;6409;56.294;14.480;2023-03-01T07:15:48;2.00;;;1.00;;
12689;SDS011;6409;56.294;14.480;2023-03-01T07:18:15;0.70;;;0.70;;
12689;SDS011;6409;56.294;14.480;2023-03-01T07:20:44;0.83;;;0.83;;
12689;SDS011;6409;56.294;14.480;2023-03-01T07:23:11;0.90;;;0.90;;
12689;SDS011;6409;56.294;14.480;2023-03-01T07:25:38;6.63;;;1.00;;
12689;SDS011;6409;56.294;14.480;2023-03-01T07:28:05;0.90;;;0.90;;
12689;SDS011;6409;56.294;14.480;2023-03-01T07:30:32;0.77;;;0.77;;
12689;SDS011;6409;56.294;14.480;2023-03-01T07:32:59;1.00;;;1.00;;
12689;SDS011;6409;56.294;14.480;2023-03-01T07:35:27;1.13;;;1.10;;
12689;SDS011;6409;56.294;14.480;2023-03-01T07:37:56;1.10;;;1.07;;
12689;SDS011;6409;56.294;14.480;2023-03-01T07:40:23;1.20;;;1.20;;
12689;SDS011;6409;56.294;14.480;2023-03-01T07:42:54;1.00;;;1.00;;
12689;SDS011;6409;56.294;14.480;2023-03-01T07:45:21;1.00;;;1.00;;
12689;SDS011;6409;56.294;14.480;2023-03-01T07:47:49;1.33;;;1.30;;
12689;SDS011;6409;56.294;14.480;2023-03-01T07:50:16;1.00;;;1.00;;
12689;SDS011;6409;56.294;14.480;2023-03-01T07:52:44;1.20;;;1.20;;
12689;SDS011;6409;56.294;14.480;2023-03-01T07:55:13;1.50;;;1.40;;
12689;SDS011;6409;56.294;14.480;2023-03-01T07:57:40;1.20;;;1.20;;
12689;SDS011;6409;56.294;14.480;2023-03-01T08:00:08;1.20;;;1.20;;
12689;SDS011;6409;56.294;14.480;2023-03-01T08:02:36;1.40;;;1.30;;
12689;SDS011;6409;56.294;14.480;2023-03-01T08:05:04;1.20;;;1.20;;
12689;SDS011;6409;56.294;14.480;2023-03-01T08:07:31;2.73;;;1.30;;
12689;SDS011;6409;56.294;14.480;2023-03-01T08:09:58;1.13;;;1.13;;
12689;SDS011;6409;56.294;14.480;2023-03-01T08:12:27;1.13;;;1.13;;
12689;SDS011;6409;56.294;14.480;2023-03-01T08:14:54;1.30;;;1.30;;
12689;SDS011;6409;56.294;14.480;2023-03-01T08:17:22;1.33;;;1.33;;
12689;SDS011;6409;56.294;14.480;2023-03-01T08:19:49;1.23;;;1.23;;
12689;SDS011;6409;56.294;14.480;2023-03-01T08:22:16;1.47;;;1.37;;
12689;SDS011;6409;56.294;14.480;2023-03-01T08:24:43;1.40;;;1.40;;
12689;SDS011;6409;56.294;14.480;2023-03-01T08:27:10;1.40;;;1.40;;
12689;SDS011;6409;56.294;14.480;2023-03-01T08:29:39;1.37;;;1.37;;
12689;SDS011;6409;56.294;14.480;2023-03-01T08:32:06;1.60;;;1.50;;
12689;SDS011;6409;56.294;14.480;2023-03-01T08:34:33;1.67;;;1.63;;
12689;SDS011;6409;56.294;14.480;2023-03-01T08:37:01;1.70;;;1.60;;
12689;SDS011;6409;56.294;14.480;2023-03-01T08:39:28;1.50;;;1.50;;
12689;SDS011;6409;56.294;14.480;2023-03-01T08:41:55;1.70;;;1.70;;
12689;SDS011;6409;56.294;14.480;2023-03-01T08:44:22;1.97;;;1.90;;
12689;SDS011;6409;56.294;14.480;2023-03-01T08:46:51;1.93;;;1.83;;
12689;SDS011;6409;56.294;14.480;2023-03-01T08:49:19;2.17;;;2.07;;
12689;SDS011;6409;56.294;14.480;2023-03-01T08:51:47;2.50;;;2.40;;
12689;SDS011;6409;56.294;14.480;2023-03-01T08:54:14;2.57;;;2.40;;
12689;SDS011;6409;56.294;14.480;2023-03-01T08:56:43;2.60;;;2.50;;
12689;SDS011;6409;56.294;14.480;2023-03-01T08:59:10;2.60;;;2.50;;
12689;SDS011;6409;56.294;14.480;2023-03-01T09:01:37;2.37;;;2.27;;
12689;SDS011;6409;56.294;14.480;2023-03-01T09:04:06;2.50;;;2.40;;
12689;SDS011;6409;56.294;14.480;2023-03-01T09:06:33;2.77;;;2.60;;
12689;SDS011;6409;56.294;14.480;2023-03-01T09:09:00;2.83;;;2.73;;
12689;SDS011;6409;56.294;14.480;2023-03-01T09:11:28;2.57;;;2.47;;
12689;SDS011;6409;56.294;14.480;2023-03-01T09:13:58;4.07;;;2.30;;
12689;SDS011;6409;56.294;14.480;2023-03-01T09:16:25;2.33;;;2.23;;
12689;SDS011;6409;56.294;14.480;2023-03-01T09:18:54;2.40;;;2.30;;
12689;SDS011;6409;56.294;14.480;2023-03-01T09:21:23;2.60;;;2.50;;
12689;SDS011;6409;56.294;14.480;2023-03-01T09:23:53;2.60;;;2.50;;
12689;SDS011;6409;56.294;14.480;2023-03-01T09:26:22;2.80;;;2.70;;
12689;SDS011;6409;56.294;14.480;2023-03-01T09:28:50;2.60;;;2.50;;
12689;SDS011;6409;56.294;14.480;2023-03-01T09:31:18;2.40;;;2.30;;
12689;SDS011;6409;56.294;14.480;2023-03-01T09:33:47;2.57;;;2.47;;
12689;SDS011;6409;56.294;14.480;2023-03-01T09:36:16;2.60;;;2.50;;
12689;SDS011;6409;56.294;14.480;2023-03-01T09:38:45;3.70;;;3.40;;
12689;SDS011;6409;56.294;14.480;2023-03-01T09:41:23;2.87;;;2.77;;
12689;SDS011;6409;56.294;14.480;2023-03-01T09:43:59;3.00;;;2.90;;
12689;SDS011;6409;56.294;14.480;2023-03-01T09:46:29;3.47;;;3.27;;
12689;SDS011;6409;56.294;14.480;2023-03-01T09:48:59;3.10;;;3.00;;
12689;SDS011;6409;56.294;14.480;2023-03-01T09:51:29;3.00;;;2.90;;
12689;SDS011;6409;56.294;14.480;2023-03-01T09:54:00;2.90;;;2.80;;
12689;SDS011;6409;56.294;14.480;2023-03-01T09:56:29;3.30;;;3.20;;
12689;SDS011;6409;56.294;14.480;2023-03-01T09:58:59;3.77;;;3.47;;
12689;SDS011;6409;56.294;14.480;2023-03-01T10:04:55;4.03;;;3.83;;
12689;SDS011;6409;56.294;14.480;2023-03-01T10:07:30;3.60;;;3.50;;
12689;SDS011;6409;56.294;14.480;2023-03-01T10:10:06;4.10;;;3.80;;
12689;SDS011;6409;56.294;14.480;2023-03-01T10:12:35;4.00;;;3.80;;
12689;SDS011;6409;56.294;14.480;2023-03-01T10:15:05;3.97;;;3.77;;
12689;SDS011;6409;56.294;14.480;2023-03-01T10:17:38;3.63;;;3.53;;
12689;SDS011;6409;56.294;14.480;2023-03-01T10:20:15;4.00;;;3.80;;
12689;SDS011;6409;56.294;14.480;2023-03-01T10:22:44;4.10;;;3.90;;
12689;SDS011;6409;56.294;14.480;2023-03-01T10:25:17;3.80;;;3.60;;
12689;SDS011;6409;56.294;14.480;2023-03-01T10:27:51;3.87;;;3.70;;
12689;SDS011;6409;56.294;14.480;2023-03-01T10:30:20;5.17;;;4.00;;
12689;SDS011;6409;56.294;14.480;2023-03-01T10:32:49;4.30;;;4.00;;
12689;SDS011;6409;56.294;14.480;2023-03-01T10:35:18;4.03;;;3.70;;
12689;SDS011;6409;56.294;14.480;2023-03-01T10:37:56;4.00;;;3.80;;
12689;SDS011;6409;56.294;14.480;2023-03-01T10:40:25;3.80;;;3.70;;
12689;SDS011;6409;56.294;14.480;2023-03-01T10:42:52;4.27;;;4.07;;
12689;SDS011;6409;56.294;14.480;2023-03-01T10:45:32;4.13;;;3.93;;
12689;SDS011;6409;56.294;14.480;2023-03-01T10:48:04;4.60;;;4.40;;
12689;SDS011;6409;56.294;14.480;2023-03-01T10:50:34;4.70;;;4.50;;
12689;SDS011;6409;56.294;14.480;2023-03-01T10:53:03;4.63;;;4.43;;
12689;SDS011;6409;56.294;14.480;2023-03-01T10:55:33;4.50;;;4.30;;
12689;SDS011;6409;56.294;14.480;2023-03-01T10:58:08;4.70;;;4.50;;
12689;SDS011;6409;56.294;14.480;2023-03-01T11:00:48;4.40;;;4.20;;
12689;SDS011;6409;56.294;14.480;2023-03-01T11:03:17;4.30;;;4.00;;
12689;SDS011;6409;56.294;14.480;2023-03-01T11:05:56;4.37;;;4.17;;
12689;SDS011;6409;56.294;14.480;2023-03-01T11:14:00;4.30;;;4.10;;
12689;SDS011;6409;56.294;14.480;2023-03-01T11:16:34;4.40;;;4.20;;
12689;SDS011;6409;56.294;14.480;2023-03-01T11:19:15;4.63;;;4.40;;
12689;SDS011;6409;56.294;14.480;2023-03-01T11:21:47;4.90;;;4.70;;
12689;SDS011;6409;56.294;14.480;2023-03-01T11:24:20;4.60;;;4.40;;
12689;SDS011;6409;56.294;14.480;2023-03-01T11:26:52;5.37;;;5.10;;
12689;SDS011;6409;56.294;14.480;2023-03-01T11:29:22;4.57;;;4.37;;
12689;SDS011;6409;56.294;14.480;2023-03-01T11:31:54;4.70;;;4.50;;
12689;SDS011;6409;56.294;14.480;2023-03-01T11:34:26;4.50;;;4.30;;
12689;SDS011;6409;56.294;14.480;2023-03-01T11:36:59;4.80;;;4.60;;
12689;SDS011;6409;56.294;14.480;2023-03-01T11:39:31;4.70;;;4.47;;
12689;SDS011;6409;56.294;14.480;2023-03-01T11:42:04;4.40;;;4.20;;
12689;SDS011;6409;56.294;14.480;2023-03-01T11:44:35;4.40;;;4.20;;
12689;SDS011;6409;56.294;14.480;2023-03-01T11:50:00;4.70;;;4.50;;
12689;SDS011;6409;56.294;14.480;2023-03-01T11:52:36;4.70;;;4.50;;
12689;SDS011;6409;56.294;14.480;2023-03-01T11:55:20;4.40;;;4.20;;
12689;SDS011;6409;56.294;14.480;2023-03-01T12:00:51;4.40;;;4.20;;
12689;SDS011;6409;56.294;14.480;2023-03-01T12:03:44;4.20;;;4.00;;
12689;SDS011;6409;56.294;14.480;2023-03-01T12:06:36;4.00;;;3.90;;
12689;SDS011;6409;56.294;14.480;2023-03-01T12:09:17;3.70;;;3.60;;
12689;SDS011;6409;56.294;14.480;2023-03-01T12:12:06;3.70;;;3.60;;
12689;SDS011;6409;56.294;14.480;2023-03-01T12:14:51;3.77;;;3.63;;
12689;SDS011;6409;56.294;14.480;2023-03-01T12:17:42;3.90;;;3.70;;
12689;SDS011;6409;56.294;14.480;2023-03-01T12:20:32;3.57;;;3.47;;
12689;SDS011;6409;56.294;14.480;2023-03-01T12:23:10;3.40;;;3.30;;
12689;SDS011;6409;56.294;14.480;2023-03-01T12:26:02;3.50;;;3.40;;
12689;SDS011;6409;56.294;14.480;2023-03-01T12:28:36;3.30;;;3.20;;
12689;SDS011;6409;56.294;14.480;2023-03-01T12:31:12;4.00;;;3.37;;
12689;SDS011;6409;56.294;14.480;2023-03-01T12:33:51;4.07;;;3.50;;
12689;SDS011;6409;56.294;14.480;2023-03-01T12:36:24;3.70;;;3.60;;
12689;SDS011;6409;56.294;14.480;2023-03-01T12:39:06;3.30;;;3.20;;
12689;SDS011;6409;56.294;14.480;2023-03-01T12:41:42;3.30;;;3.20;;
12689;SDS011;6409;56.294;14.480;2023-03-01T12:44:15;3.50;;;3.40;;
12689;SDS011;6409;56.294;14.480;2023-03-01T12:47:02;3.30;;;3.17;;
12689;SDS011;6409;56.294;14.480;2023-03-01T12:49:36;3.13;;;3.03;;
12689;SDS011;6409;56.294;14.480;2023-03-01T12:52:09;3.40;;;3.27;;
12689;SDS011;6409;56.294;14.480;2023-03-01T12:54:37;3.30;;;3.20;;
12689;SDS011;6409;56.294;14.480;2023-03-01T12:57:06;3.30;;;3.20;;
12689;SDS011;6409;56.294;14.480;2023-03-01T12:59:38;3.30;;;3.20;;
12689;SDS011;6409;56.294;14.480;2023-03-01T13:02:13;3.43;;;3.20;;
12689;SDS011;6409;56.294;14.480;2023-03-01T13:04:50;4.83;;;3.40;;
12689;SDS011;6409;56.294;14.480;2023-03-01T13:07:24;3.20;;;3.10;;
12689;SDS011;6409;56.294;14.480;2023-03-01T13:09:56;3.40;;;3.30;;
12689;SDS011;6409;56.294;14.480;2023-03-01T13:12:41;4.00;;;3.60;;
12689;SDS011;6409;56.294;14.480;2023-03-01T13:15:24;3.10;;;3.00;;
12689;SDS011;6409;56.294;14.480;2023-03-01T13:17:56;3.10;;;3.00;;
12689;SDS011;6409;56.294;14.480;2023-03-01T13:20:25;3.30;;;3.20;;
12689;SDS011;6409;56.294;14.480;2023-03-01T13:26:00;3.20;;;3.10;;
12689;SDS011;6409;56.294;14.480;2023-03-01T13:28:40;3.20;;;3.10;;
12689;SDS011;6409;56.294;14.480;2023-03-01T13:31:55;3.27;;;3.17;;
12689;SDS011;6409;56.294;14.480;2023-03-01T13:37:32;3.10;;;3.00;;
12689;SDS011;6409;56.294;14.480;2023-03-01T13:40:05;3.37;;;3.20;;
12689;SDS011;6409;56.294;14.480;2023-03-01T13:43:25;3.20;;;3.10;;
12689;SDS011;6409;56.294;14.480;2023-03-01T13:45:55;3.57;;;3.37;;
12689;SDS011;6409;56.294;14.480;2023-03-01T13:48:24;3.87;;;3.60;;
12689;SDS011;6409;56.294;14.480;2023-03-01T13:50:53;3.20;;;3.10;;
12689;SDS011;6409;56.294;14.480;2023-03-01T13:53:22;3.40;;;3.30;;
12689;SDS011;6409;56.294;14.480;2023-03-01T13:55:52;3.30;;;3.20;;
12689;SDS011;6409;56.294;14.480;2023-03-01T13:58:22;3.40;;;3.30;;
12689;SDS011;6409;56.294;14.480;2023-03-01T14:00:58;3.40;;;3.30;;
12689;SDS011;6409;56.294;14.480;2023-03-01T14:03:29;3.43;;;3.30;;
12689;SDS011;6409;56.294;14.480;2023-03-01T14:05:58;3.30;;;3.20;;
12689;SDS011;6409;56.294;14.480;2023-03-01T14:08:31;3.40;;;3.30;;
12689;SDS011;6409;56.294;14.480;2023-03-01T14:11:04;3.20;;;3.10;;
12689;SDS011;6409;56.294;14.480;2023-03-01T14:14:01;3.40;;;3.30;;
12689;SDS011;6409;56.294;14.480;2023-03-01T14:16:35;3.23;;;3.13;;
12689;SDS011;6409;56.294;14.480;2023-03-01T14:19:12;3.20;;;3.10;;
12689;SDS011;6409;56.294;14.480;2023-03-01T14:21:42;3.10;;;3.00;;
12689;SDS011;6409;56.294;14.480;2023-03-01T14:24:15;3.40;;;3.30;;
12689;SDS011;6409;56.294;14.480;2023-03-01T14:26:44;3.20;;;3.10;;
12689;SDS011;6409;56.294;14.480;2023-03-01T14:29:23;3.27;;;3.17;;
12689;SDS011;6409;56.294;14.480;2023-03-01T14:31:50;3.40;;;3.30;;
12689;SDS011;6409;56.294;14.480;2023-03-01T14:34:20;3.20;;;3.10;;
12689;SDS011;6409;56.294;14.480;2023-03-01T14:36:47;3.10;;;3.00;;
12689;SDS011;6409;56.294;14.480;2023-03-01T14:39:18;3.23;;;3.10;;
12689;SDS011;6409;56.294;14.480;2023-03-01T14:41:47;3.10;;;3.00;;
12689;SDS011;6409;56.294;14.480;2023-03-01T14:44:15;3.10;;;3.00;;
12689;SDS011;6409;56.294;14.480;2023-03-01T14:46:44;3.00;;;2.90;;
12689;SDS011;6409;56.294;14.480;2023-03-01T14:49:13;3.10;;;3.00;;
12689;SDS011;6409;56.294;14.480;2023-03-01T14:51:45;3.00;;;2.90;;
12689;SDS011;6409;56.294;14.480;2023-03-01T14:54:19;2.90;;;2.80;;
12689;SDS011;6409;56.294;14.480;2023-03-01T14:56:47;3.10;;;2.90;;
12689;SDS011;6409;56.294;14.480;2023-03-01T14:59:14;2.90;;;2.80;;
12689;SDS011;6409;56.294;14.480;2023-03-01T15:01:41;3.30;;;3.20;;
12689;SDS011;6409;56.294;14.480;2023-03-01T15:04:10;3.03;;;2.93;;
12689;SDS011;6409;56.294;14.480;2023-03-01T15:06:38;2.80;;;2.70;;
12689;SDS011;6409;56.294;14.480;2023-03-01T15:09:10;5.53;;;2.90;;
12689;SDS011;6409;56.294;14.480;2023-03-01T15:11:39;3.13;;;3.03;;
12689;SDS011;6409;56.294;14.480;2023-03-01T15:17:14;3.00;;;2.90;;
12689;SDS011;6409;56.294;14.480;2023-03-01T15:19:46;3.83;;;2.80;;
12689;SDS011;6409;56.294;14.480;2023-03-01T15:22:14;3.07;;;2.97;;
12689;SDS011;6409;56.294;14.480;2023-03-01T15:24:43;2.87;;;2.77;;
12689;SDS011;6409;56.294;14.480;2023-03-01T15:27:14;2.90;;;2.80;;
12689;SDS011;6409;56.294;14.480;2023-03-01T15:29:46;3.00;;;2.90;;